createdAt,value
2023-02-19T00:01:00.507Z,49.48
2023-02-19T00:06:00.439Z,49.48
2023-02-19T00:11:00.389Z,49.47
2023-02-19T00:16:00.370Z,49.49
2023-02-19T00:21:00.243Z,49.48
2023-02-19T00:26:12.327Z,49.48
2023-02-19T00:31:00.158Z,49.52
2023-02-19T00:36:00.046Z,49.57
2023-02-19T00:40:59.986Z,49.52
2023-02-19T00:45:59.926Z,49.56
2023-02-19T00:50:59.867Z,49.58
2023-02-19T00:55:59.788Z,49.60
2023-02-19T01:00:59.723Z,49.57
2023-02-19T01:05:59.651Z,49.57
2023-02-19T01:10:59.606Z,49.60
2023-02-19T01:15:59.533Z,49.59
2023-02-19T01:20:59.462Z,49.58
2023-02-19T01:25:59.391Z,49.61
2023-02-19T01:30:59.354Z,49.61
2023-02-19T01:35:59.252Z,49.67
2023-02-19T01:40:59.190Z,49.65
2023-02-19T01:45:59.125Z,49.68
2023-02-19T01:50:59.067Z,49.64
2023-02-19T01:55:59.018Z,49.67
2023-02-19T02:00:58.946Z,49.70
2023-02-19T02:05:58.876Z,49.67
2023-02-19T02:10:58.814Z,49.74
2023-02-19T02:15:58.773Z,49.71
2023-02-19T02:20:58.682Z,49.75
2023-02-19T02:25:58.607Z,49.72
2023-02-19T02:30:58.597Z,49.74
2023-02-19T02:35:58.478Z,49.72
2023-02-19T02:40:58.418Z,49.71
2023-02-19T02:45:58.371Z,49.72
2023-02-19T02:50:58.307Z,49.73
2023-02-19T02:55:58.212Z,49.72
2023-02-19T03:00:58.170Z,49.76
2023-02-19T03:05:58.083Z,49.82
2023-02-19T03:10:58.021Z,49.79
2023-02-19T03:15:57.961Z,49.83
2023-02-19T03:20:57.906Z,49.84
2023-02-19T03:25:57.817Z,49.87
2023-02-19T03:30:57.783Z,49.88
2023-02-19T03:35:57.691Z,49.92
2023-02-19T03:40:57.627Z,49.98
2023-02-19T03:45:57.576Z,49.99
2023-02-19T03:50:57.493Z,50.00
2023-02-19T03:55:57.429Z,50.02
2023-02-19T04:00:57.390Z,50.06
2023-02-19T04:05:57.297Z,50.08
2023-02-19T04:10:57.246Z,50.11
2023-02-19T04:15:57.171Z,50.12
2023-02-19T04:20:57.111Z,50.11
2023-02-19T04:25:57.036Z,50.17
2023-02-19T04:30:57.009Z,50.19
2023-02-19T04:35:56.908Z,50.25
2023-02-19T04:40:56.834Z,50.52
2023-02-19T04:45:56.795Z,50.37
2023-02-19T04:50:56.712Z,50.18
2023-02-19T04:55:56.799Z,50.18
2023-02-19T05:00:56.589Z,50.12
2023-02-19T05:05:56.506Z,50.02
2023-02-19T05:10:56.445Z,50.07
2023-02-19T05:15:56.424Z,50.10
2023-02-19T05:20:56.339Z,50.19
2023-02-19T05:25:56.265Z,50.02
2023-02-19T05:30:56.265Z,50.00
2023-02-19T05:35:56.054Z,50.00
2023-02-19T05:40:55.998Z,49.95
2023-02-19T05:45:55.925Z,49.94
2023-02-19T05:50:55.860Z,49.90
2023-02-19T05:55:55.797Z,49.85
2023-02-19T06:00:55.734Z,49.84
2023-02-19T06:05:55.658Z,49.90
2023-02-19T06:10:55.599Z,49.79
2023-02-19T06:15:55.559Z,49.79
2023-02-19T06:20:55.469Z,49.69
2023-02-19T06:25:55.402Z,49.20
2023-02-19T06:30:55.343Z,48.48
2023-02-19T06:35:55.273Z,47.95
2023-02-19T06:40:55.210Z,47.61
2023-02-19T06:45:55.150Z,47.25
2023-02-19T06:50:55.093Z,47.29
2023-02-19T06:55:55.014Z,47.26
2023-02-19T07:00:55.002Z,47.28
2023-02-19T07:05:54.878Z,47.20
2023-02-19T07:10:54.815Z,47.17
2023-02-19T07:15:54.750Z,47.10
2023-02-19T07:20:54.685Z,47.02
2023-02-19T07:25:54.612Z,46.92
2023-02-19T07:30:54.584Z,46.68
2023-02-19T07:35:54.485Z,47.22
2023-02-19T07:40:54.437Z,47.14
2023-02-19T07:45:54.424Z,47.30
2023-02-19T07:50:54.329Z,46.30
2023-02-19T07:55:54.236Z,45.69
2023-02-19T08:00:54.190Z,46.17
2023-02-19T08:05:54.109Z,46.49
2023-02-19T08:10:54.038Z,46.44
2023-02-19T08:15:56.302Z,44.97
2023-02-19T08:20:53.901Z,38.06
2023-02-19T08:25:53.860Z,29.73
2023-02-19T08:30:53.787Z,26.25
2023-02-19T08:35:53.704Z,23.51
2023-02-19T08:40:53.639Z,29.42
2023-02-19T08:45:53.604Z,34.22
2023-02-19T08:50:53.520Z,37.01
2023-02-19T08:55:53.443Z,41.97
2023-02-19T09:00:53.371Z,42.92
2023-02-19T09:05:53.307Z,43.46
2023-02-19T09:10:53.241Z,43.46
2023-02-19T09:15:53.219Z,42.72
2023-02-19T09:20:53.131Z,42.24
2023-02-19T09:25:53.045Z,42.41
2023-02-19T09:30:53.033Z,39.51
2023-02-19T09:35:52.950Z,41.30
2023-02-19T09:40:52.857Z,42.79
2023-02-19T09:45:52.867Z,41.92
2023-02-19T09:50:52.731Z,40.99
2023-02-19T09:55:52.664Z,40.78
2023-02-19T10:00:52.693Z,41.37
2023-02-19T10:05:52.528Z,41.31
2023-02-19T10:10:52.484Z,40.19
2023-02-19T10:15:52.422Z,39.84
2023-02-19T10:20:52.346Z,40.68
2023-02-19T10:25:52.272Z,40.92
2023-02-19T10:30:52.246Z,40.67
2023-02-19T10:35:52.141Z,40.34
2023-02-19T10:40:52.089Z,40.32
2023-02-19T10:45:52.020Z,40.20
2023-02-19T10:50:51.958Z,40.18
2023-02-19T10:55:51.894Z,39.83
2023-02-19T11:00:51.842Z,39.98
2023-02-19T11:05:51.762Z,40.59
2023-02-19T11:10:51.705Z,41.67
2023-02-19T11:15:51.690Z,41.48
2023-02-19T11:20:51.573Z,41.15
2023-02-19T11:25:51.516Z,41.10
2023-02-19T11:30:51.447Z,41.55
2023-02-19T11:35:51.380Z,41.82
2023-02-19T11:40:51.376Z,42.11
2023-02-19T11:45:51.253Z,42.39
2023-02-19T11:50:51.197Z,42.63
2023-02-19T11:55:51.125Z,42.89
2023-02-19T12:00:51.068Z,42.64
2023-02-19T12:05:50.993Z,43.37
2023-02-19T12:10:50.929Z,43.93
2023-02-19T12:15:50.867Z,43.94
2023-02-19T12:20:50.855Z,43.78
2023-02-19T12:25:50.750Z,44.16
2023-02-19T12:30:50.702Z,44.69
2023-02-19T12:35:50.614Z,44.14
2023-02-19T12:40:50.708Z,43.91
2023-02-19T12:45:50.491Z,43.65
2023-02-19T12:50:50.415Z,43.75
2023-02-19T12:55:50.353Z,43.85
2023-02-19T13:00:50.650Z,43.81
2023-02-19T13:05:50.239Z,43.49
2023-02-19T13:10:50.323Z,43.32
2023-02-19T13:15:50.102Z,42.89
2023-02-19T13:20:50.041Z,42.22
2023-02-19T13:25:50.004Z,42.50
2023-02-19T13:30:50.126Z,42.81
2023-02-19T13:35:49.841Z,43.43
2023-02-19T13:40:49.782Z,43.90
2023-02-19T13:45:49.737Z,44.57
2023-02-19T13:50:49.663Z,43.86
2023-02-19T13:55:49.593Z,43.18
2023-02-19T14:00:49.611Z,43.82
2023-02-19T14:05:49.461Z,43.82
2023-02-19T14:10:49.399Z,44.13
2023-02-19T14:15:49.503Z,44.64
2023-02-19T14:20:49.272Z,44.89
2023-02-19T14:25:49.203Z,44.54
2023-02-19T14:30:49.175Z,45.02
2023-02-19T14:35:49.072Z,44.76
2023-02-19T14:40:49.008Z,44.61
2023-02-19T14:45:48.964Z,44.81
2023-02-19T14:50:48.885Z,45.31
2023-02-19T14:55:48.828Z,45.47
2023-02-19T15:00:48.754Z,45.25
2023-02-19T15:05:48.684Z,45.24
2023-02-19T15:10:48.627Z,45.27
2023-02-19T15:15:48.608Z,45.31
2023-02-19T15:20:48.496Z,45.15
2023-02-19T15:25:48.432Z,45.01
2023-02-19T15:30:48.384Z,45.14
2023-02-19T15:35:48.306Z,45.21
2023-02-19T15:40:48.254Z,45.47
2023-02-19T15:45:48.185Z,46.16
2023-02-19T15:50:48.120Z,46.26
2023-02-19T15:55:48.067Z,47.27
2023-02-19T16:00:47.998Z,47.67
2023-02-19T16:05:47.922Z,47.78
2023-02-19T16:10:47.866Z,48.08
2023-02-19T16:15:47.815Z,48.50
2023-02-19T16:20:47.735Z,48.84
2023-02-19T16:25:47.672Z,49.27
2023-02-19T16:30:47.607Z,49.23
2023-02-19T16:35:47.548Z,49.29
2023-02-19T16:40:47.479Z,49.48
2023-02-19T16:45:47.511Z,49.75
2023-02-19T16:50:47.355Z,49.35
2023-02-19T16:55:47.336Z,49.11
2023-02-19T17:00:47.385Z,48.92
2023-02-19T17:05:47.356Z,48.98
2023-02-19T17:10:47.235Z,49.00
2023-02-19T17:15:47.053Z,49.18
2023-02-19T17:20:46.966Z,49.18
2023-02-19T17:25:46.899Z,49.27
2023-02-19T17:30:46.840Z,49.33
2023-02-19T17:35:46.769Z,49.02
2023-02-19T17:40:46.717Z,48.82
2023-02-19T17:45:46.720Z,48.63
2023-02-19T17:50:46.582Z,48.49
2023-02-19T17:55:46.529Z,48.40
2023-02-19T18:00:46.455Z,48.41
2023-02-19T18:05:46.391Z,48.36
2023-02-19T18:10:46.333Z,48.41
2023-02-19T18:15:46.256Z,48.54
2023-02-19T18:20:46.201Z,48.57
2023-02-19T18:25:46.128Z,48.62
2023-02-19T18:30:46.189Z,48.67
2023-02-19T18:35:46.000Z,48.59
2023-02-19T18:40:45.945Z,48.54
2023-02-19T18:45:45.957Z,48.61
2023-02-19T18:50:45.816Z,48.57
2023-02-19T18:55:45.747Z,48.61
2023-02-19T19:00:45.689Z,48.68
2023-02-19T19:05:45.624Z,48.66
2023-02-19T19:10:45.564Z,48.59
2023-02-19T19:15:45.518Z,48.57
2023-02-19T19:20:45.443Z,48.57
2023-02-19T19:25:45.363Z,48.66
2023-02-19T19:30:45.368Z,48.70
2023-02-19T19:35:45.248Z,48.77
2023-02-19T19:40:45.176Z,48.93
2023-02-19T19:45:45.106Z,49.07
2023-02-19T19:50:45.047Z,49.23
2023-02-19T19:55:44.983Z,49.47
2023-02-19T20:00:44.913Z,49.60
2023-02-19T20:05:44.860Z,49.66
2023-02-19T20:10:45.490Z,49.81
2023-02-19T20:15:44.783Z,49.95
2023-02-19T20:20:44.654Z,50.07
2023-02-19T20:25:44.594Z,50.22
2023-02-19T20:30:44.593Z,50.35
2023-02-19T20:35:44.490Z,50.44
2023-02-19T20:40:44.400Z,50.47
2023-02-19T20:45:44.347Z,50.58
2023-02-19T20:50:44.273Z,50.63
2023-02-19T20:55:44.209Z,50.66
2023-02-19T21:00:44.141Z,50.67
2023-02-19T21:05:44.115Z,50.66
2023-02-19T21:10:44.012Z,50.73
2023-02-19T21:15:43.981Z,50.78
2023-02-19T21:20:43.876Z,50.86
2023-02-19T21:25:43.817Z,50.92
2023-02-19T21:30:43.812Z,51.35
2023-02-19T21:35:43.694Z,51.09
2023-02-19T21:40:43.616Z,51.11
2023-02-19T21:45:43.614Z,51.09
2023-02-19T21:50:43.541Z,51.17
2023-02-19T21:55:56.656Z,51.22
2023-02-19T22:00:43.449Z,51.29
2023-02-19T22:05:43.345Z,51.30
2023-02-19T22:10:43.275Z,51.39
2023-02-19T22:15:43.219Z,51.47
2023-02-19T22:20:43.145Z,51.53
2023-02-19T22:25:43.083Z,51.54
2023-02-19T22:30:43.050Z,51.55
2023-02-19T22:35:42.964Z,51.59
2023-02-19T22:40:42.878Z,51.69
2023-02-19T22:45:42.836Z,51.73
2023-02-19T22:50:42.760Z,51.70
2023-02-19T22:55:42.689Z,51.73
2023-02-19T23:00:42.621Z,51.75
2023-02-19T23:05:42.562Z,51.67
2023-02-19T23:10:42.497Z,51.72
2023-02-19T23:15:42.435Z,51.71
2023-02-19T23:20:42.365Z,51.78
2023-02-19T23:25:42.324Z,51.77
2023-02-19T23:30:42.320Z,51.78
2023-02-19T23:35:42.173Z,51.79
2023-02-19T23:40:42.098Z,51.78
2023-02-19T23:45:42.103Z,51.81
2023-02-19T23:50:41.977Z,51.82
2023-02-19T23:55:41.916Z,51.82
